Terminal Aerodrome Forecast
Issued by NWS Knoxville/Tri Cities, TN

Home | Current Version | Previous Version | Text Only | Print | Product List | Glossary On
Versions: 1 2 3 4 5 6 7 8 9 10 11 12 13 14 15 16 17 18 19 20 21 22 23 24
000
FTUS44 KMRX 241124
TAFTRI
TAF
KTRI 241124Z 2412/2512 16005KT P6SM BKN060
     FM241500 22015G30KT P6SM BKN040
     FM250000 24012KT P6SM SCT040
     FM250400 26005KT P6SM SCT030 BKN120=

USA.gov is the U.S. government's official web portal to all federal, state and local government web resources and services.